createdAt,value
2022-10-21T00:01:12.090Z,22.47
2022-10-21T00:03:41.536Z,29.63
2022-10-21T00:06:10.975Z,22.60
2022-10-21T00:08:40.578Z,25.00
2022-10-21T00:11:11.577Z,23.17
2022-10-21T00:13:40.624Z,27.20
2022-10-21T00:16:11.784Z,26.37
2022-10-21T00:18:42.524Z,29.73
2022-10-21T00:21:13.431Z,26.77
2022-10-21T00:23:42.498Z,20.23
2022-10-21T00:26:13.161Z,32.50
2022-10-21T00:28:41.914Z,22.70
2022-10-21T00:31:11.750Z,25.47
2022-10-21T00:33:40.423Z,29.40
2022-10-21T00:36:14.842Z,27.97
2022-10-21T00:38:44.874Z,26.43
2022-10-21T00:41:15.612Z,33.20
2022-10-21T00:43:59.085Z,19.53
2022-10-21T00:46:34.423Z,26.83
2022-10-21T00:49:06.746Z,28.73
2022-10-21T00:51:35.088Z,26.70
2022-10-21T00:54:04.027Z,27.80
2022-10-21T00:56:36.018Z,27.70
2022-10-21T00:59:06.464Z,29.70
2022-10-21T01:01:34.926Z,30.53
2022-10-21T01:04:04.039Z,27.77
2022-10-21T01:06:33.074Z,22.80
2022-10-21T01:09:02.789Z,27.97
2022-10-21T01:11:36.179Z,26.07
2022-10-21T01:14:29.042Z,20.67
2022-10-21T01:17:20.627Z,21.43
2022-10-21T01:20:21.667Z,28.57
2022-10-21T01:23:08.315Z,29.07
2022-10-21T01:25:59.161Z,19.97
2022-10-21T01:28:44.736Z,23.40
2022-10-21T01:31:19.655Z,24.47
2022-10-21T01:33:54.384Z,29.63
2022-10-21T01:36:31.760Z,22.27
2022-10-21T01:39:08.480Z,24.40
2022-10-21T01:41:41.454Z,23.03
2022-10-21T01:44:16.959Z,28.77
2022-10-21T01:46:51.282Z,27.33
2022-10-21T01:49:24.747Z,25.33
2022-10-21T01:51:54.581Z,29.23
2022-10-21T01:54:27.004Z,28.90
2022-10-21T01:56:57.284Z,25.60
2022-10-21T01:59:28.218Z,28.63
2022-10-21T02:01:59.626Z,30.60
2022-10-21T02:04:29.955Z,24.47
2022-10-21T02:06:58.396Z,25.73
2022-10-21T02:09:26.778Z,24.67
2022-10-21T02:11:59.343Z,29.53
2022-10-21T02:14:33.240Z,29.93
2022-10-21T02:17:03.562Z,28.73
2022-10-21T02:19:32.683Z,26.23
2022-10-21T02:22:04.771Z,29.93
2022-10-21T02:24:39.267Z,24.53
2022-10-21T02:27:07.730Z,28.53
2022-10-21T02:29:39.162Z,24.53
2022-10-21T02:32:26.900Z,24.50
2022-10-21T02:35:07.630Z,23.63
2022-10-21T02:37:44.366Z,28.47
2022-10-21T02:40:18.636Z,32.17
2022-10-21T02:42:51.623Z,36.30
2022-10-21T02:45:20.180Z,34.30
2022-10-21T02:47:51.295Z,29.37
2022-10-21T02:50:19.802Z,26.67
2022-10-21T02:52:48.419Z,28.70
2022-10-21T02:55:16.787Z,30.77
2022-10-21T02:57:45.203Z,29.77
2022-10-21T03:00:14.784Z,35.23
2022-10-21T03:02:43.313Z,30.80
2022-10-21T03:05:13.218Z,29.03
2022-10-21T03:07:42.309Z,32.00
2022-10-21T03:10:11.047Z,29.53
2022-10-21T03:12:39.617Z,24.30
2022-10-21T03:15:09.339Z,29.33
2022-10-21T03:17:38.238Z,33.57
2022-10-21T03:20:07.356Z,31.37
2022-10-21T03:22:37.494Z,35.20
2022-10-21T03:25:06.831Z,30.17
2022-10-21T03:27:35.466Z,31.47
2022-10-21T03:30:04.411Z,32.03
2022-10-21T03:32:32.798Z,35.07
2022-10-21T03:35:01.295Z,31.47
2022-10-21T03:37:29.911Z,31.10
2022-10-21T03:39:59.567Z,29.63
2022-10-21T03:42:29.095Z,31.53
2022-10-21T03:44:59.035Z,29.93
2022-10-21T03:47:27.610Z,28.90
2022-10-21T03:49:55.740Z,30.00
2022-10-21T03:52:24.100Z,26.40
2022-10-21T03:54:52.104Z,36.93
2022-10-21T03:57:21.542Z,29.83
2022-10-21T03:59:49.538Z,30.60
2022-10-21T04:02:17.655Z,34.97
2022-10-21T04:04:45.952Z,31.93
2022-10-21T04:07:14.387Z,30.07
2022-10-21T04:09:42.359Z,35.87
2022-10-21T04:12:12.350Z,26.57
2022-10-21T04:14:42.363Z,31.60
2022-10-21T04:17:10.971Z,29.10
2022-10-21T04:19:39.100Z,27.70
2022-10-21T04:22:07.642Z,32.13
2022-10-21T04:24:36.272Z,34.80
2022-10-21T04:27:05.008Z,32.57
2022-10-21T04:29:33.208Z,27.13
2022-10-21T04:32:02.919Z,31.27
2022-10-21T04:34:31.250Z,34.50
2022-10-21T04:37:02.522Z,41.80
2022-10-21T04:39:33.718Z,33.37
2022-10-21T04:42:02.104Z,36.13
2022-10-21T04:44:30.282Z,35.40
2022-10-21T04:46:58.644Z,31.57
2022-10-21T04:49:28.246Z,31.43
2022-10-21T04:51:57.017Z,36.20
2022-10-21T04:54:25.367Z,32.50
2022-10-21T04:56:54.017Z,41.80
2022-10-21T04:59:22.186Z,39.47
2022-10-21T05:01:51.168Z,34.27
2022-10-21T05:04:19.537Z,39.63
2022-10-21T05:06:49.270Z,38.00
2022-10-21T05:09:17.722Z,35.33
2022-10-21T05:11:46.136Z,42.27
2022-10-21T05:14:15.754Z,32.50
2022-10-21T05:16:46.054Z,39.40
2022-10-21T05:19:14.503Z,53.70
2022-10-21T05:21:43.108Z,35.00
2022-10-21T05:24:12.698Z,38.40
2022-10-21T05:26:41.283Z,34.97
2022-10-21T05:29:09.721Z,33.63
2022-10-21T05:31:38.411Z,31.53
2022-10-21T05:34:06.692Z,34.47
2022-10-21T05:36:35.603Z,36.63
2022-10-21T05:39:03.997Z,32.10
2022-10-21T05:41:33.811Z,24.90
2022-10-21T05:44:02.074Z,37.50
2022-10-21T05:46:30.615Z,36.93
2022-10-21T05:48:59.133Z,36.40
2022-10-21T05:51:28.630Z,37.63
2022-10-21T05:53:58.249Z,37.87
2022-10-21T05:56:26.676Z,33.43
2022-10-21T05:58:56.287Z,32.63
2022-10-21T06:01:24.799Z,30.67
2022-10-21T06:03:53.222Z,40.50
2022-10-21T06:06:21.624Z,36.03
2022-10-21T06:08:49.928Z,31.03
2022-10-21T06:11:20.615Z,34.43
2022-10-21T06:13:49.330Z,34.80
2022-10-21T06:16:19.147Z,29.17
2022-10-21T06:18:47.426Z,27.90
2022-10-21T06:21:16.228Z,39.70
2022-10-21T06:23:44.588Z,39.93
2022-10-21T06:26:16.097Z,34.40
2022-10-21T06:28:45.518Z,41.67
2022-10-21T06:31:15.993Z,36.53
2022-10-21T06:33:45.698Z,40.57
2022-10-21T06:36:14.822Z,37.93
2022-10-21T06:38:43.292Z,36.37
2022-10-21T06:41:14.563Z,38.30
2022-10-21T06:43:43.591Z,39.07
2022-10-21T06:46:14.480Z,34.03
2022-10-21T06:48:43.082Z,27.57
2022-10-21T06:51:16.026Z,38.83
2022-10-21T06:53:45.406Z,35.67
2022-10-21T06:56:16.699Z,34.30
2022-10-21T06:58:47.888Z,43.03
2022-10-21T07:01:33.864Z,36.87
2022-10-21T07:04:03.761Z,29.93
2022-10-21T07:09:09.223Z,35.67
2022-10-21T07:11:37.780Z,34.73
2022-10-21T07:14:06.155Z,34.83
2022-10-21T07:16:36.784Z,36.60
2022-10-21T07:19:05.325Z,38.10
2022-10-21T07:21:35.367Z,35.33
2022-10-21T07:24:03.722Z,40.87
2022-10-21T07:26:34.803Z,37.73
2022-10-21T07:29:03.407Z,39.00
2022-10-21T07:31:34.536Z,38.10
2022-10-21T07:36:37.786Z,34.17
2022-10-21T07:39:09.356Z,39.87
2022-10-21T07:41:41.528Z,31.20
2022-10-21T07:44:10.259Z,36.87
2022-10-21T07:46:40.001Z,34.90
2022-10-21T07:49:09.117Z,32.10
2022-10-21T07:51:40.341Z,28.57
2022-10-21T07:54:09.788Z,29.50
2022-10-21T07:56:42.025Z,36.50
2022-10-21T07:59:13.167Z,33.33
2022-10-21T08:01:44.629Z,29.73
2022-10-21T08:04:15.430Z,25.37
2022-10-21T08:06:48.368Z,26.63
2022-10-21T08:09:17.477Z,31.97
2022-10-21T08:11:46.235Z,39.50
2022-10-21T08:14:14.926Z,40.30
2022-10-21T08:16:43.506Z,36.93
2022-10-21T08:19:19.002Z,34.10
2022-10-21T08:21:48.898Z,43.80
2022-10-21T08:24:17.270Z,36.30
2022-10-21T08:26:45.721Z,34.23
2022-10-21T08:29:14.120Z,31.40
2022-10-21T08:31:42.632Z,34.90
2022-10-21T08:34:10.979Z,32.90
2022-10-21T08:36:40.142Z,32.07
2022-10-21T08:39:10.288Z,31.40
2022-10-21T08:41:57.756Z,32.10
2022-10-21T08:44:33.862Z,32.83
2022-10-21T08:49:51.473Z,35.60
2022-10-21T08:52:23.151Z,27.70
2022-10-21T08:54:57.496Z,35.53
2022-10-21T08:57:26.268Z,33.47
2022-10-21T08:59:54.837Z,30.33
2022-10-21T09:02:36.910Z,32.70
2022-10-21T09:05:20.644Z,35.30
2022-10-21T09:08:01.965Z,31.47
2022-10-21T09:10:40.346Z,27.30
2022-10-21T09:13:18.039Z,37.90
2022-10-21T09:16:00.376Z,23.77
2022-10-21T09:18:44.250Z,29.13
2022-10-21T09:21:20.939Z,32.47
2022-10-21T09:23:59.280Z,33.97
2022-10-21T09:26:41.508Z,27.67
2022-10-21T09:29:28.492Z,36.63
2022-10-21T09:32:03.324Z,29.40
2022-10-21T09:34:45.241Z,30.23
2022-10-21T09:37:19.648Z,22.30
2022-10-21T09:39:53.634Z,30.00
2022-10-21T09:42:46.334Z,22.27
2022-10-21T09:45:22.157Z,28.63
2022-10-21T09:47:58.852Z,24.47
2022-10-21T09:50:28.222Z,23.67
2022-10-21T09:53:01.738Z,20.43
2022-10-21T09:55:32.694Z,22.17
2022-10-21T09:58:04.015Z,25.83
2022-10-21T10:00:49.990Z,26.93
2022-10-21T10:03:35.567Z,23.83
2022-10-21T10:06:06.321Z,20.63
2022-10-21T10:08:40.381Z,19.20
2022-10-21T10:11:18.238Z,28.03
2022-10-21T10:13:49.767Z,25.43
2022-10-21T10:16:23.428Z,24.87
2022-10-21T10:18:53.466Z,23.50
2022-10-21T10:21:23.399Z,27.70
2022-10-21T10:23:55.995Z,23.17
2022-10-21T10:26:29.886Z,26.33
2022-10-21T10:29:07.403Z,31.70
2022-10-21T10:31:36.955Z,24.47
2022-10-21T10:34:07.893Z,21.50
2022-10-21T10:36:38.672Z,22.13
2022-10-21T10:39:16.263Z,19.17
2022-10-21T10:41:49.135Z,25.87
2022-10-21T10:44:28.190Z,20.87
2022-10-21T10:46:58.874Z,26.50
2022-10-21T10:49:28.930Z,21.27
2022-10-21T10:52:17.875Z,22.40
2022-10-21T10:54:46.113Z,23.20
2022-10-21T10:57:16.922Z,23.70
2022-10-21T10:59:51.385Z,30.80
2022-10-21T11:02:35.171Z,23.90
2022-10-21T11:05:19.410Z,24.65
2022-10-21T11:07:50.775Z,20.17
2022-10-21T11:10:35.273Z,19.98
2022-10-21T11:13:06.531Z,26.05
2022-10-21T11:16:11.514Z,22.73
2022-10-21T11:18:49.354Z,20.23
2022-10-21T11:21:42.816Z,22.10
2022-10-21T11:24:43.180Z,22.90
2022-10-21T11:27:21.528Z,19.85
2022-10-21T11:29:58.457Z,23.83
2022-10-21T11:32:39.531Z,17.48
2022-10-21T11:35:23.861Z,25.27
2022-10-21T11:38:03.903Z,16.33
2022-10-21T11:40:41.085Z,22.80
2022-10-21T11:43:26.485Z,18.20
2022-10-21T11:46:02.717Z,19.00
2022-10-21T11:48:46.605Z,18.73
2022-10-21T11:51:24.097Z,17.75
2022-10-21T11:54:07.682Z,16.27
2022-10-21T11:56:45.977Z,19.05
2022-10-21T11:59:27.561Z,16.67
2022-10-21T12:02:01.816Z,18.15
2022-10-21T12:04:37.710Z,24.95
2022-10-21T12:07:20.449Z,22.23
2022-10-21T12:09:56.360Z,18.50
2022-10-21T12:12:31.353Z,21.38
2022-10-21T12:15:02.516Z,20.67
2022-10-21T12:17:34.695Z,15.55
2022-10-21T12:20:07.336Z,18.92
2022-10-21T12:22:36.770Z,19.35
2022-10-21T12:25:18.606Z,20.25
2022-10-21T12:27:55.346Z,20.95
2022-10-21T12:30:33.429Z,22.92
2022-10-21T12:33:14.468Z,16.05
2022-10-21T12:35:49.996Z,12.48
2022-10-21T12:38:24.492Z,20.88
2022-10-21T12:41:25.811Z,16.00
2022-10-21T12:44:00.202Z,15.05
2022-10-21T12:46:33.734Z,15.05
2022-10-21T12:49:15.359Z,20.02
2022-10-21T12:51:50.641Z,16.50
2022-10-21T12:54:26.559Z,22.42
2022-10-21T12:57:03.572Z,14.93
2022-10-21T12:59:35.429Z,21.85
2022-10-21T13:02:22.376Z,21.85
2022-10-21T13:04:56.887Z,17.20
2022-10-21T13:07:38.900Z,19.60
2022-10-21T13:10:31.596Z,17.70
2022-10-21T13:13:31.717Z,19.90
2022-10-21T13:16:02.407Z,18.52
2022-10-21T13:18:56.473Z,18.63
2022-10-21T13:21:31.165Z,18.80
2022-10-21T13:24:12.896Z,18.63
2022-10-21T13:26:43.101Z,21.38
2022-10-21T13:29:34.056Z,19.05
2022-10-21T13:32:31.337Z,20.15
2022-10-21T13:35:26.611Z,22.25
2022-10-21T13:37:59.297Z,19.77
2022-10-21T13:40:37.213Z,23.70
2022-10-21T13:43:09.704Z,22.70
2022-10-21T13:45:42.339Z,23.40
2022-10-21T13:48:16.002Z,27.67
2022-10-21T13:50:46.213Z,21.98
2022-10-21T13:53:25.519Z,26.77
2022-10-21T13:56:00.758Z,19.63
2022-10-21T13:58:31.374Z,25.30
2022-10-21T14:01:09.078Z,20.80
2022-10-21T14:03:37.688Z,19.83
2022-10-21T14:06:08.776Z,24.83
2022-10-21T14:08:41.841Z,25.63
2022-10-21T14:11:17.173Z,20.08
2022-10-21T14:13:46.950Z,19.40
2022-10-21T14:16:22.286Z,26.52
2022-10-21T14:18:51.251Z,26.02
2022-10-21T14:21:22.446Z,22.27
2022-10-21T14:23:52.165Z,25.45
2022-10-21T14:26:22.572Z,21.08
2022-10-21T14:28:51.771Z,20.77
2022-10-21T14:31:20.526Z,22.17
2022-10-21T14:33:49.805Z,17.13
2022-10-21T14:36:20.633Z,19.70
2022-10-21T14:38:55.716Z,26.20
2022-10-21T14:41:28.564Z,25.20
2022-10-21T14:43:59.956Z,19.92
2022-10-21T14:46:28.648Z,21.98
2022-10-21T14:49:02.591Z,22.63
2022-10-21T14:51:37.883Z,23.05
2022-10-21T14:54:26.492Z,27.83
2022-10-21T14:56:57.960Z,25.13
2022-10-21T14:59:35.286Z,21.02
2022-10-21T15:02:04.923Z,22.20
2022-10-21T15:04:51.557Z,23.00
2022-10-21T15:07:28.830Z,21.45
2022-10-21T15:10:13.696Z,22.95
2022-10-21T15:12:45.615Z,18.38
2022-10-21T15:15:52.542Z,26.35
2022-10-21T15:18:23.856Z,25.45
2022-10-21T15:20:55.778Z,21.42
2022-10-21T15:23:27.440Z,27.25
2022-10-21T15:26:00.619Z,33.72
2022-10-21T15:28:35.178Z,27.10
2022-10-21T15:31:05.432Z,32.05
2022-10-21T15:33:33.690Z,25.83
2022-10-21T15:36:03.817Z,22.80
2022-10-21T15:38:32.214Z,20.50
2022-10-21T15:41:00.624Z,21.80
2022-10-21T15:43:28.912Z,22.27
2022-10-21T15:45:58.756Z,24.10
2022-10-21T15:48:28.085Z,23.77
2022-10-21T15:50:57.844Z,22.83
2022-10-21T15:53:26.160Z,19.95
2022-10-21T15:55:55.115Z,20.60
2022-10-21T15:58:23.326Z,26.92
2022-10-21T16:00:51.771Z,30.70
2022-10-21T16:03:21.534Z,31.05
2022-10-21T16:05:50.377Z,25.33
2022-10-21T16:08:18.634Z,23.40
2022-10-21T16:10:47.933Z,28.52
2022-10-21T16:13:16.560Z,27.65
2022-10-21T16:15:44.939Z,24.30
2022-10-21T16:18:14.696Z,26.48
2022-10-21T16:20:44.707Z,27.27
2022-10-21T16:23:12.903Z,24.67
2022-10-21T16:25:41.284Z,27.05
2022-10-21T16:28:12.210Z,27.85
2022-10-21T16:30:41.890Z,19.77
2022-10-21T16:33:11.165Z,29.80
2022-10-21T16:35:39.656Z,24.73
2022-10-21T16:38:10.300Z,24.98
2022-10-21T16:40:38.719Z,31.88
2022-10-21T16:43:07.482Z,21.10
2022-10-21T16:45:36.445Z,28.05
2022-10-21T16:48:05.809Z,29.52
2022-10-21T16:50:39.653Z,25.67
2022-10-21T16:53:14.640Z,36.30
2022-10-21T16:55:43.415Z,30.08
2022-10-21T16:58:11.668Z,27.42
2022-10-21T17:00:41.289Z,26.13
2022-10-21T17:03:12.140Z,26.92
2022-10-21T17:05:40.828Z,35.58
2022-10-21T17:08:10.527Z,23.42
2022-10-21T17:10:38.978Z,27.65
2022-10-21T17:13:07.373Z,26.13
2022-10-21T17:15:35.937Z,22.65
2022-10-21T17:18:04.511Z,27.25
2022-10-21T17:20:33.612Z,28.17
2022-10-21T17:23:02.503Z,23.38
2022-10-21T17:25:32.577Z,27.83
2022-10-21T17:28:01.120Z,29.13
2022-10-21T17:30:29.899Z,27.58
2022-10-21T17:32:58.957Z,34.95
2022-10-21T17:35:27.596Z,39.50
2022-10-21T17:37:56.139Z,30.05
2022-10-21T17:40:27.085Z,34.45
2022-10-21T17:42:58.374Z,26.40
2022-10-21T17:45:27.160Z,27.13
2022-10-21T17:47:55.520Z,28.13
2022-10-21T17:50:26.771Z,25.52
2022-10-21T17:52:56.231Z,31.00
2022-10-21T17:55:24.916Z,31.25
2022-10-21T17:57:53.401Z,25.67
2022-10-21T18:00:23.847Z,24.08
2022-10-21T18:02:52.467Z,37.60
2022-10-21T18:05:21.400Z,32.05
2022-10-21T18:07:51.065Z,33.25
2022-10-21T18:10:20.531Z,29.45
2022-10-21T18:12:50.006Z,32.97
2022-10-21T18:15:20.282Z,34.72
2022-10-21T18:17:51.038Z,39.80
2022-10-21T18:20:20.745Z,36.53
2022-10-21T18:22:49.868Z,36.30
2022-10-21T18:25:18.758Z,35.15
2022-10-21T18:27:47.958Z,30.83
2022-10-21T18:30:17.427Z,30.92
2022-10-21T18:32:46.326Z,32.25
2022-10-21T18:35:17.790Z,29.70
2022-10-21T18:37:47.048Z,36.05
2022-10-21T18:40:16.715Z,28.80
2022-10-21T18:42:45.906Z,29.40
2022-10-21T18:45:15.721Z,31.90
2022-10-21T18:47:47.476Z,33.00
2022-10-21T18:50:19.158Z,32.05
2022-10-21T18:52:48.115Z,26.13
2022-10-21T18:55:18.046Z,33.95
2022-10-21T18:57:47.387Z,37.22
2022-10-21T19:00:16.905Z,30.38
2022-10-21T19:02:46.112Z,34.05
2022-10-21T19:05:15.822Z,35.67
2022-10-21T19:07:47.089Z,30.08
2022-10-21T19:10:16.716Z,30.52
2022-10-21T19:12:46.103Z,25.85
2022-10-21T19:15:15.973Z,27.35
2022-10-21T19:17:45.523Z,36.20
2022-10-21T19:20:15.909Z,26.77
2022-10-21T19:22:47.953Z,33.08
2022-10-21T19:25:17.836Z,27.50
2022-10-21T19:27:47.439Z,29.83
2022-10-21T19:30:16.763Z,30.48
2022-10-21T19:32:45.781Z,34.05
2022-10-21T19:35:14.925Z,28.13
2022-10-21T19:37:45.228Z,27.92
2022-10-21T19:40:14.950Z,31.30
2022-10-21T19:42:44.698Z,34.03
2022-10-21T19:45:17.100Z,26.80
2022-10-21T19:47:47.025Z,26.52
2022-10-21T19:50:16.322Z,33.40
2022-10-21T19:52:46.967Z,24.30
2022-10-21T19:55:19.086Z,26.48
2022-10-21T19:57:48.281Z,23.65
2022-10-21T20:00:17.861Z,24.88
2022-10-21T20:02:47.080Z,31.17
2022-10-21T20:05:15.768Z,23.77
2022-10-21T20:07:46.219Z,25.00
2022-10-21T20:10:15.700Z,36.85
2022-10-21T20:12:43.931Z,24.58
2022-10-21T20:15:12.996Z,22.10
2022-10-21T20:17:41.595Z,28.65
2022-10-21T20:20:10.483Z,26.15
2022-10-21T20:22:39.151Z,26.20
2022-10-21T20:25:10.251Z,26.92
2022-10-21T20:27:38.776Z,25.10
2022-10-21T20:30:08.619Z,23.27
2022-10-21T20:32:36.947Z,27.33
2022-10-21T20:35:06.558Z,25.73
2022-10-21T20:37:39.671Z,23.00
2022-10-21T20:40:10.653Z,36.17
2022-10-21T20:42:38.982Z,32.03
2022-10-21T20:45:08.379Z,27.55
2022-10-21T20:47:36.684Z,28.38
2022-10-21T20:50:06.560Z,22.40
2022-10-21T20:52:34.823Z,37.67
2022-10-21T20:55:03.213Z,26.67
2022-10-21T20:57:33.288Z,25.52
2022-10-21T21:00:01.739Z,27.05
2022-10-21T21:02:30.307Z,38.58
2022-10-21T21:04:58.740Z,24.38
2022-10-21T21:07:27.072Z,29.42
2022-10-21T21:10:02.760Z,27.35
2022-10-21T21:12:33.357Z,35.60
2022-10-21T21:15:02.086Z,26.45
2022-10-21T21:17:30.334Z,32.90
2022-10-21T21:19:58.945Z,29.67
2022-10-21T21:22:27.267Z,31.52
2022-10-21T21:24:55.815Z,36.05
2022-10-21T21:27:24.001Z,29.52
2022-10-21T21:29:53.918Z,28.08
2022-10-21T21:32:22.162Z,27.13
2022-10-21T21:34:55.215Z,33.53
2022-10-21T21:37:24.217Z,24.77
2022-10-21T21:39:52.960Z,27.35
2022-10-21T21:42:21.556Z,33.58
2022-10-21T21:44:49.941Z,23.85
2022-10-21T21:47:19.827Z,30.50
2022-10-21T21:49:48.617Z,28.00
2022-10-21T21:52:16.808Z,25.98
2022-10-21T21:54:45.221Z,26.05
2022-10-21T21:57:27.372Z,23.38
2022-10-21T21:59:56.702Z,23.02
2022-10-21T22:02:26.312Z,25.60
2022-10-21T22:04:54.674Z,23.00
2022-10-21T22:07:22.993Z,22.48
2022-10-21T22:09:51.488Z,24.08
2022-10-21T22:12:22.948Z,28.67
2022-10-21T22:14:51.733Z,25.27
2022-10-21T22:17:20.019Z,34.15
2022-10-21T22:19:53.669Z,29.85
2022-10-21T22:22:22.442Z,21.95
2022-10-21T22:24:50.863Z,28.08
2022-10-21T22:27:19.035Z,23.17
2022-10-21T22:29:47.499Z,25.25
2022-10-21T22:32:17.491Z,23.83
2022-10-21T22:34:46.413Z,24.42
2022-10-21T22:37:16.237Z,21.42
2022-10-21T22:39:44.642Z,25.13
2022-10-21T22:42:12.799Z,29.10
2022-10-21T22:44:41.488Z,24.60
2022-10-21T22:47:09.688Z,22.30
2022-10-21T22:49:38.165Z,27.83
2022-10-21T22:52:06.462Z,24.13
2022-10-21T22:54:48.984Z,22.13
2022-10-21T22:57:17.993Z,25.52
2022-10-21T22:59:50.629Z,24.50
2022-10-21T23:02:21.317Z,31.05
2022-10-21T23:04:49.789Z,29.27
2022-10-21T23:07:17.956Z,24.15
2022-10-21T23:09:47.805Z,34.75
2022-10-21T23:12:16.054Z,26.05
2022-10-21T23:14:44.784Z,28.08
2022-10-21T23:17:13.048Z,27.40
2022-10-21T23:19:41.403Z,22.15
2022-10-21T23:22:10.970Z,21.42
2022-10-21T23:24:39.336Z,30.00
2022-10-21T23:27:09.107Z,25.00
2022-10-21T23:29:37.977Z,22.63
2022-10-21T23:32:06.485Z,23.88
2022-10-21T23:34:34.953Z,29.58
2022-10-21T23:37:03.130Z,23.42
2022-10-21T23:39:31.883Z,22.40
2022-10-21T23:42:00.063Z,26.05
2022-10-21T23:44:29.904Z,25.63
2022-10-21T23:46:58.315Z,23.85
2022-10-21T23:49:26.883Z,32.00
2022-10-21T23:51:55.337Z,22.33
2022-10-21T23:54:23.816Z,28.20
2022-10-21T23:56:52.048Z,33.83
2022-10-21T23:59:22.054Z,28.25
